Time;durP1;ratioP1;P1;durP2;ratioP2;P2;SDS_P1;SDS_P2;PMS_P1;PMS_P2;Temp;Humidity;BMP_temperature;BMP_pressure;BME280_temperature;BME280_humidity;BME280_pressure;Samples;Min_cycle;Max_cycle;Signal;HPM_P1;HPM_P2
2021/07/01 00:00:07;;;;;;;;;;;14.50;99.90;;;;;;5008234;28;19987;-83
2021/07/01 00:02:33;;;;;;;;;;;14.50;99.90;;;;;;5015333;28;19920;-83
2021/07/01 00:04:58;;;;;;;;;;;14.50;99.90;;;;;;5010770;28;19910;-83
2021/07/01 00:07:24;;;;;;;;;;;14.50;99.90;;;;;;5016287;28;19914;-83
2021/07/01 00:09:49;;;;;;;;;;;14.50;99.90;;;;;;5011756;28;20266;-83
2021/07/01 00:12:15;;;;;;;;;;;14.50;99.90;;;;;;5003431;28;19921;-83
2021/07/01 00:14:40;;;;;;;;;;;14.50;99.90;;;;;;5002709;28;19932;-83
2021/07/01 00:17:06;;;;;;;;;;;14.50;99.90;;;;;;5008181;28;19910;-83
2021/07/01 00:19:31;;;;;;;;;;;14.50;99.90;;;;;;5000113;28;20404;-83
2021/07/01 00:21:57;;;;;;;;;;;14.50;99.90;;;;;;5000505;28;19909;-83
2021/07/01 00:24:22;;;;;;;;;;;14.50;99.90;;;;;;5001175;28;19976;-82
2021/07/01 00:26:48;;;;;;;;;;;14.50;99.90;;;;;;5008727;28;19979;-83
2021/07/01 00:29:13;;;;;;;;;;;14.40;99.90;;;;;;5013817;28;19914;-83
2021/07/01 00:31:39;;;;;;;;;;;14.50;99.90;;;;;;5006207;28;19918;-82
2021/07/01 00:34:04;;;;;;;;;;;14.50;99.90;;;;;;5014657;28;19914;-83
2021/07/01 00:36:30;;;;;;;;;;;14.40;99.90;;;;;;5005246;28;19924;-82
2021/07/01 00:38:55;;;;;;;;;;;14.40;99.90;;;;;;5016786;28;19914;-83
2021/07/01 00:41:21;;;;;;;;;;;14.40;99.90;;;;;;5000056;28;19918;-82
2021/07/01 00:43:47;;;;;;;;;;;14.40;99.90;;;;;;5001022;28;19910;-83
2021/07/01 00:46:13;;;;;;;;;;;14.40;99.90;;;;;;5008581;28;19914;-83
2021/07/01 00:48:38;;;;;;;;;;;14.40;99.90;;;;;;5021097;28;19909;-83
2021/07/01 00:51:03;;;;;;;;;;;14.40;99.90;;;;;;5004877;28;19920;-82
2021/07/01 00:53:29;;;;;;;;;;;14.40;99.90;;;;;;5019056;28;20324;-83
2021/07/01 00:55:54;;;;;;;;;;;14.40;99.90;;;;;;5006688;28;20297;-82
2021/07/01 00:58:20;;;;;;;;;;;14.40;99.90;;;;;;5019820;28;19913;-82
2021/07/01 01:00:58;;;;;;;;;;;14.40;99.90;;;;;;5004075;28;20382;-82
2021/07/01 01:03:23;;;;;;;;;;;14.40;99.90;;;;;;5017928;28;19909;-82
2021/07/01 01:05:49;;;;;;;;;;;14.40;99.90;;;;;;5006747;28;19985;-83
2021/07/01 01:08:14;;;;;;;;;;;14.30;99.90;;;;;;5020545;28;19973;-83
2021/07/01 01:10:40;;;;;;;;;;;14.40;99.90;;;;;;5017592;28;19937;-82
2021/07/01 01:13:06;;;;;;;;;;;14.30;99.90;;;;;;5001418;28;19937;-83
2021/07/01 01:15:31;;;;;;;;;;;14.30;99.90;;;;;;5006047;28;19945;-82
2021/07/01 01:17:57;;;;;;;;;;;14.30;99.90;;;;;;5001146;28;19910;-83
2021/07/01 01:20:22;;;;;;;;;;;14.30;99.90;;;;;;5005427;28;19926;-82
2021/07/01 01:22:48;;;;;;;;;;;14.30;99.90;;;;;;5000269;28;19910;-82
2021/07/01 01:25:13;;;;;;;;;;;14.30;99.90;;;;;;5005298;28;19920;-83
2021/07/01 01:27:39;;;;;;;;;;;14.30;99.90;;;;;;5000095;28;19948;-82
2021/07/01 01:30:05;;;;;;;;;;;14.30;99.90;;;;;;5004448;28;19920;-82
2021/07/01 01:32:30;;;;;;;;;;;14.30;99.90;;;;;;4999784;28;20024;-82
2021/07/01 01:34:56;;;;;;;;;;;14.30;99.90;;;;;;4998876;28;19979;-80
2021/07/01 01:37:21;;;;;;;;;;;14.30;99.90;;;;;;5000050;28;19910;-83
2021/07/01 01:39:47;;;;;;;;;;;14.30;99.90;;;;;;5001466;28;19928;-83
2021/07/01 01:42:13;;;;;;;;;;;14.30;99.90;;;;;;5019321;28;19910;-82
2021/07/01 01:44:38;;;;;;;;;;;14.30;99.90;;;;;;5017101;28;20016;-83
2021/07/01 01:47:13;;;;;;;;;;;14.30;99.90;;;;;;5022454;28;19909;-83
2021/07/01 01:49:38;;;;;;;;;;;14.30;99.90;;;;;;5015614;28;19948;-83
2021/07/01 01:52:04;;;;;;;;;;;14.30;99.90;;;;;;5000198;28;19910;-82
2021/07/01 01:54:29;;;;;;;;;;;14.30;99.90;;;;;;5001106;28;19922;-83
2021/07/01 01:56:55;;;;;;;;;;;14.30;99.90;;;;;;5001538;28;19914;-83
2021/07/01 01:59:20;;;;;;;;;;;14.30;99.90;;;;;;4999815;28;19917;-83
2021/07/01 02:01:45;;;;;;;;;;;14.30;99.90;;;;;;4998786;28;20453;-83
2021/07/01 02:04:11;;;;;;;;;;;14.30;99.90;;;;;;5000399;28;19979;-83
2021/07/01 02:06:38;;;;;;;;;;;14.30;99.90;;;;;;5010876;28;19955;-83
2021/07/01 02:09:03;;;;;;;;;;;14.30;99.90;;;;;;5019907;28;19964;-83
2021/07/01 02:11:29;;;;;;;;;;;14.30;99.90;;;;;;5010399;28;19980;-83
2021/07/01 02:13:54;;;;;;;;;;;14.30;99.90;;;;;;4998555;28;19917;-82
2021/07/01 02:16:20;;;;;;;;;;;14.30;99.90;;;;;;5006674;28;19917;-83
2021/07/01 02:18:48;;;;;;;;;;;14.30;99.90;;;;;;5016664;28;20000;-83
2021/07/01 02:21:14;;;;;;;;;;;14.30;99.90;;;;;;5005336;28;20070;-82
2021/07/01 02:23:39;;;;;;;;;;;14.30;99.90;;;;;;5013205;28;19914;-83
2021/07/01 02:26:05;;;;;;;;;;;14.30;99.90;;;;;;4999349;28;19918;-83
2021/07/01 02:28:30;;;;;;;;;;;14.30;99.90;;;;;;4998853;28;19918;-83
2021/07/01 02:30:56;;;;;;;;;;;14.30;99.90;;;;;;5011260;28;19944;-83
2021/07/01 02:33:21;;;;;;;;;;;14.30;99.90;;;;;;5015788;28;19909;-81
2021/07/01 02:35:47;;;;;;;;;;;14.30;99.90;;;;;;4998749;28;19917;-83
2021/07/01 02:38:12;;;;;;;;;;;14.30;99.90;;;;;;4997812;28;19910;-83
2021/07/01 02:40:38;;;;;;;;;;;14.30;99.90;;;;;;4998329;28;20354;-83
2021/07/01 02:43:03;;;;;;;;;;;14.30;99.90;;;;;;4996684;28;19910;-82
2021/07/01 02:45:29;;;;;;;;;;;14.30;99.90;;;;;;4998026;28;19921;-83
2021/07/01 02:47:54;;;;;;;;;;;14.30;99.90;;;;;;4998781;28;19910;-82
2021/07/01 02:50:20;;;;;;;;;;;14.30;99.90;;;;;;4997469;28;19945;-82
2021/07/01 02:52:45;;;;;;;;;;;14.20;99.90;;;;;;5012633;28;19920;-82
2021/07/01 02:55:11;;;;;;;;;;;14.20;99.90;;;;;;5002358;28;19918;-83
2021/07/01 02:57:37;;;;;;;;;;;14.20;99.90;;;;;;4998045;28;19953;-83
2021/07/01 03:00:05;;;;;;;;;;;14.20;99.90;;;;;;4997994;28;19924;-83
2021/07/01 03:02:30;;;;;;;;;;;14.10;99.90;;;;;;4998229;28;19965;-83
2021/07/01 03:04:56;;;;;;;;;;;14.10;99.90;;;;;;4996484;28;19914;-83
2021/07/01 03:07:22;;;;;;;;;;;14.10;99.90;;;;;;4997904;28;19914;-83
2021/07/01 03:09:47;;;;;;;;;;;14.10;99.90;;;;;;4997918;28;19910;-83
2021/07/01 03:12:13;;;;;;;;;;;14.10;99.90;;;;;;4997638;28;19953;-82
2021/07/01 03:14:38;;;;;;;;;;;14.10;99.90;;;;;;5004768;28;19972;-83
2021/07/01 03:17:04;;;;;;;;;;;14.10;99.90;;;;;;4998072;28;20370;-82
2021/07/01 03:19:29;;;;;;;;;;;14.10;99.90;;;;;;5003559;28;20001;-82
2021/07/01 03:21:56;;;;;;;;;;;14.10;99.90;;;;;;5001304;28;19931;-83
2021/07/01 03:24:21;;;;;;;;;;;14.00;99.90;;;;;;5016301;28;19976;-83
2021/07/01 03:26:47;;;;;;;;;;;14.10;99.90;;;;;;4998853;28;19913;-83
2021/07/01 03:29:12;;;;;;;;;;;14.10;99.90;;;;;;5017927;28;20330;-84
2021/07/01 03:31:38;;;;;;;;;;;14.10;99.90;;;;;;4998178;28;19918;-83
2021/07/01 03:34:03;;;;;;;;;;;14.10;99.90;;;;;;5018080;28;19914;-84
2021/07/01 03:36:29;;;;;;;;;;;14.10;99.90;;;;;;5000174;28;19910;-83
2021/07/01 03:38:54;;;;;;;;;;;14.10;99.90;;;;;;5014962;28;19920;-83
2021/07/01 03:41:20;;;;;;;;;;;14.10;99.90;;;;;;5007607;28;20357;-83
2021/07/01 03:43:48;;;;;;;;;;;14.10;99.90;;;;;;5018389;28;20001;-82
2021/07/01 03:46:15;;;;;;;;;;;14.10;99.90;;;;;;5002736;28;19922;-83
2021/07/01 03:48:40;;;;;;;;;;;14.10;99.90;;;;;;5017631;28;20063;-83
2021/07/01 03:51:06;;;;;;;;;;;14.10;99.90;;;;;;5014807;28;19952;-82
2021/07/01 03:53:32;;;;;;;;;;;14.10;99.90;;;;;;5021589;28;19916;-82
2021/07/01 03:55:58;;;;;;;;;;;14.20;99.90;;;;;;5013595;28;19909;-83
2021/07/01 03:58:23;;;;;;;;;;;14.20;99.90;;;;;;5022781;28;20396;-83
2021/07/01 04:00:49;;;;;;;;;;;14.20;99.90;;;;;;5010696;28;19924;-83
2021/07/01 04:03:14;;;;;;;;;;;14.20;99.90;;;;;;5017363;28;19914;-82
2021/07/01 04:05:40;;;;;;;;;;;14.20;99.90;;;;;;5002009;28;19924;-83
2021/07/01 04:08:05;;;;;;;;;;;14.20;99.90;;;;;;5000745;28;20778;-83
2021/07/01 04:10:31;;;;;;;;;;;14.20;99.90;;;;;;4999528;28;19913;-82
2021/07/01 04:12:56;;;;;;;;;;;14.20;99.90;;;;;;4998102;28;19913;-82
2021/07/01 04:15:22;;;;;;;;;;;14.30;99.90;;;;;;4997644;28;20385;-82
2021/07/01 04:17:47;;;;;;;;;;;14.30;99.90;;;;;;5001712;28;20333;-82
2021/07/01 04:20:13;;;;;;;;;;;14.30;99.90;;;;;;4998851;28;20316;-82
2021/07/01 04:22:38;;;;;;;;;;;14.30;99.90;;;;;;4999999;28;19921;-83
2021/07/01 04:25:04;;;;;;;;;;;14.30;99.90;;;;;;5003738;28;19953;-83
2021/07/01 04:27:29;;;;;;;;;;;14.30;99.90;;;;;;4998446;28;19921;-83
2021/07/01 04:29:55;;;;;;;;;;;14.40;99.90;;;;;;5018861;28;19913;-82
2021/07/01 04:32:21;;;;;;;;;;;14.30;99.90;;;;;;5007578;28;19918;-83
2021/07/01 04:34:46;;;;;;;;;;;14.30;99.90;;;;;;5016586;28;19960;-83
2021/07/01 04:37:12;;;;;;;;;;;14.30;99.90;;;;;;5008447;28;19918;-83
2021/07/01 04:39:37;;;;;;;;;;;14.30;99.90;;;;;;5014654;28;20403;-83
2021/07/01 04:42:03;;;;;;;;;;;14.30;99.90;;;;;;4999991;28;19918;-82
2021/07/01 04:44:28;;;;;;;;;;;14.30;99.90;;;;;;4997799;28;19913;-82
2021/07/01 04:46:54;;;;;;;;;;;14.30;99.90;;;;;;4997831;28;20433;-82
2021/07/01 04:49:19;;;;;;;;;;;14.30;99.90;;;;;;4998387;28;19963;-83
2021/07/01 04:51:45;;;;;;;;;;;14.40;99.90;;;;;;5006822;28;20354;-82
2021/07/01 04:54:11;;;;;;;;;;;14.40;99.90;;;;;;5008720;28;20008;-82
2021/07/01 04:56:46;;;;;;;;;;;14.50;99.90;;;;;;5001198;28;19920;-83
2021/07/01 04:59:16;;;;;;;;;;;14.50;99.90;;;;;;5011844;28;19913;-83
2021/07/01 05:01:42;;;;;;;;;;;14.70;99.90;;;;;;4999654;28;19918;-83
2021/07/01 05:04:08;;;;;;;;;;;14.80;99.90;;;;;;5000952;28;19968;-83
2021/07/01 05:06:37;;;;;;;;;;;14.90;99.90;;;;;;5000781;28;19914;-83
2021/07/01 05:09:03;;;;;;;;;;;14.90;99.90;;;;;;5009409;28;19952;-83
2021/07/01 05:11:30;;;;;;;;;;;15.00;99.90;;;;;;5006866;28;20489;-83
2021/07/01 05:13:56;;;;;;;;;;;15.00;99.90;;;;;;5001294;28;19910;-83
2021/07/01 05:16:21;;;;;;;;;;;15.00;99.90;;;;;;5012159;28;19921;-83
2021/07/01 05:18:46;;;;;;;;;;;15.00;99.90;;;;;;5001106;28;19914;-83
2021/07/01 05:21:12;;;;;;;;;;;15.00;99.90;;;;;;5001314;28;20455;-83
2021/07/01 05:23:37;;;;;;;;;;;15.00;99.90;;;;;;5000631;28;19933;-83
2021/07/01 05:26:03;;;;;;;;;;;15.00;99.90;;;;;;5004756;28;20395;-84
2021/07/01 05:28:28;;;;;;;;;;;15.00;99.90;;;;;;5001198;28;20381;-84
2021/07/01 05:30:54;;;;;;;;;;;15.00;99.90;;;;;;5004200;28;19913;-82
2021/07/01 05:33:19;;;;;;;;;;;15.00;99.90;;;;;;5000389;28;19921;-83
2021/07/01 05:35:45;;;;;;;;;;;15.00;99.90;;;;;;5000441;28;19914;-83
2021/07/01 05:38:11;;;;;;;;;;;14.90;99.90;;;;;;5000827;28;19981;-83
2021/07/01 05:40:36;;;;;;;;;;;14.90;99.90;;;;;;5006661;28;19917;-84
2021/07/01 05:43:02;;;;;;;;;;;14.90;99.90;;;;;;5000931;28;19914;-84
2021/07/01 05:45:27;;;;;;;;;;;14.90;99.90;;;;;;5009378;28;19966;-84
2021/07/01 05:47:53;;;;;;;;;;;14.90;99.90;;;;;;4991043;28;19911;-84
2021/07/01 05:50:19;;;;;;;;;;;14.90;99.90;;;;;;4983439;28;19914;-84
2021/07/01 05:52:49;;;;;;;;;;;15.00;99.90;;;;;;4998264;28;19921;-83
2021/07/01 05:55:14;;;;;;;;;;;15.00;99.90;;;;;;5019645;28;20301;-83
2021/07/01 05:57:40;;;;;;;;;;;14.90;99.90;;;;;;5001015;28;19914;-84
2021/07/01 06:00:07;;;;;;;;;;;15.00;99.90;;;;;;5002204;28;20436;-84
2021/07/01 06:02:32;;;;;;;;;;;15.00;99.90;;;;;;4997281;28;19914;-84
2021/07/01 06:04:58;;;;;;;;;;;15.00;99.90;;;;;;5015814;28;19955;-84
2021/07/01 06:07:24;;;;;;;;;;;15.00;99.90;;;;;;5014646;28;19922;-84
2021/07/01 06:09:56;;;;;;;;;;;15.00;99.90;;;;;;5020183;28;19996;-84
2021/07/01 06:12:24;;;;;;;;;;;15.00;99.90;;;;;;4998876;28;19940;-83
2021/07/01 06:14:56;;;;;;;;;;;15.10;99.90;;;;;;4999608;28;19910;-85
2021/07/01 06:17:21;;;;;;;;;;;15.10;99.90;;;;;;5003961;28;19914;-84
2021/07/01 06:19:49;;;;;;;;;;;15.10;99.90;;;;;;5010472;28;19995;-84
2021/07/01 06:22:15;;;;;;;;;;;15.10;99.90;;;;;;5001391;28;20004;-84
2021/07/01 06:24:41;;;;;;;;;;;15.10;99.90;;;;;;5020075;28;19910;-83
2021/07/01 06:27:07;;;;;;;;;;;15.20;99.90;;;;;;5006310;28;19941;-84
2021/07/01 06:29:32;;;;;;;;;;;15.20;99.90;;;;;;5018102;28;20321;-82
2021/07/01 06:31:58;;;;;;;;;;;15.30;99.90;;;;;;5000775;28;19925;-84
2021/07/01 06:34:23;;;;;;;;;;;15.40;99.90;;;;;;5017117;28;19946;-84
2021/07/01 06:36:50;;;;;;;;;;;15.40;99.90;;;;;;5003198;28;19965;-84
2021/07/01 06:39:20;;;;;;;;;;;15.50;99.90;;;;;;5019016;28;19913;-85
2021/07/01 06:41:46;;;;;;;;;;;15.60;99.90;;;;;;4983882;28;19938;-85
2021/07/01 06:44:12;;;;;;;;;;;15.70;99.90;;;;;;4999731;28;19913;-84
2021/07/01 06:46:39;;;;;;;;;;;15.80;99.90;;;;;;5002830;28;19914;-84
2021/07/01 06:49:05;;;;;;;;;;;15.80;99.90;;;;;;5016700;28;19969;-84
2021/07/01 06:51:38;;;;;;;;;;;15.90;99.90;;;;;;5004845;28;19933;-84
2021/07/01 06:54:05;;;;;;;;;;;15.90;99.90;;;;;;5015893;28;19917;-85
2021/07/01 06:56:38;;;;;;;;;;;16.00;99.90;;;;;;5006255;28;19918;-85
2021/07/01 06:59:04;;;;;;;;;;;16.10;99.90;;;;;;5015856;28;19948;-85
2021/07/01 07:01:29;;;;;;;;;;;16.30;99.90;;;;;;5004722;28;19922;-84
2021/07/01 07:03:55;;;;;;;;;;;16.50;99.90;;;;;;5014411;28;19920;-84
2021/07/01 07:06:20;;;;;;;;;;;16.60;99.90;;;;;;5007009;28;20005;-84
2021/07/01 07:08:46;;;;;;;;;;;16.70;99.90;;;;;;5012700;28;20005;-83
2021/07/01 07:11:12;;;;;;;;;;;16.70;99.90;;;;;;5011105;28;19922;-84
2021/07/01 07:13:37;;;;;;;;;;;16.80;99.90;;;;;;5000945;28;19910;-81
2021/07/01 07:16:04;;;;;;;;;;;16.80;99.90;;;;;;5005292;28;19914;-84
2021/07/01 07:18:31;;;;;;;;;;;16.80;99.90;;;;;;5020255;28;20395;-85
2021/07/01 07:21:06;;;;;;;;;;;16.70;99.90;;;;;;4999632;28;19964;-84
2021/07/01 07:23:33;;;;;;;;;;;16.60;99.90;;;;;;4998936;28;19934;-84
2021/07/01 07:26:03;;;;;;;;;;;16.50;99.90;;;;;;5012460;28;19914;-84
2021/07/01 07:28:29;;;;;;;;;;;16.50;99.90;;;;;;5024545;28;20396;-85
2021/07/01 07:30:55;;;;;;;;;;;16.40;99.90;;;;;;5006249;28;19913;-84
2021/07/01 07:33:25;;;;;;;;;;;16.40;99.90;;;;;;5004751;28;19941;-84
2021/07/01 07:35:51;;;;;;;;;;;16.50;99.90;;;;;;5010113;28;19921;-84
2021/07/01 07:38:17;;;;;;;;;;;16.50;99.90;;;;;;5015438;28;19913;-85
2021/07/01 07:40:42;;;;;;;;;;;16.70;99.90;;;;;;5016068;28;19924;-84
2021/07/01 07:43:09;;;;;;;;;;;16.90;99.90;;;;;;5016417;28;20355;-83
2021/07/01 07:45:35;;;;;;;;;;;17.10;99.90;;;;;;5016614;28;19918;-84
2021/07/01 07:48:00;;;;;;;;;;;17.30;99.90;;;;;;5017386;28;20407;-84
2021/07/01 07:50:26;;;;;;;;;;;17.40;99.90;;;;;;5011511;28;20289;-83
2021/07/01 07:52:52;;;;;;;;;;;17.60;99.90;;;;;;5023415;28;19921;-84
2021/07/01 07:55:20;;;;;;;;;;;17.70;99.90;;;;;;5015812;28;19910;-84
2021/07/01 07:57:48;;;;;;;;;;;17.70;99.90;;;;;;5020794;28;19914;-85
2021/07/01 08:00:13;;;;;;;;;;;17.60;99.90;;;;;;5026750;28;19967;-83
2021/07/01 08:02:48;;;;;;;;;;;17.50;99.90;;;;;;5019340;28;20185;-84
2021/07/01 08:05:19;;;;;;;;;;;17.30;99.90;;;;;;5001572;28;20306;-84
2021/07/01 08:07:44;;;;;;;;;;;17.30;99.90;;;;;;4983835;28;19914;-84
2021/07/01 08:10:12;;;;;;;;;;;17.30;99.90;;;;;;4983932;28;19910;-84
2021/07/01 08:12:42;;;;;;;;;;;17.50;99.90;;;;;;5004724;28;19914;-85
2021/07/01 08:15:09;;;;;;;;;;;17.80;99.90;;;;;;5004635;28;19933;-84
2021/07/01 08:17:35;;;;;;;;;;;18.00;99.90;;;;;;5003159;28;19916;-85
2021/07/01 08:20:01;;;;;;;;;;;18.10;99.90;;;;;;5002568;28;19965;-83
2021/07/01 08:22:26;;;;;;;;;;;18.20;99.90;;;;;;4996416;28;19910;-84
2021/07/01 08:24:52;;;;;;;;;;;18.10;99.90;;;;;;4989844;28;20301;-83
2021/07/01 08:27:18;;;;;;;;;;;18.10;99.90;;;;;;4998772;28;19920;-84
2021/07/01 08:29:44;;;;;;;;;;;18.00;99.90;;;;;;4995862;28;19914;-83
2021/07/01 08:32:10;;;;;;;;;;;17.80;99.90;;;;;;5000331;28;20060;-83
2021/07/01 08:34:38;;;;;;;;;;;17.70;99.90;;;;;;4994220;28;19949;-84
2021/07/01 08:37:03;;;;;;;;;;;17.60;99.90;;;;;;4999124;28;19914;-83
2021/07/01 08:39:32;;;;;;;;;;;17.50;99.90;;;;;;5003002;28;19922;-84
2021/07/01 08:42:00;;;;;;;;;;;17.50;99.90;;;;;;4998842;28;19917;-83
2021/07/01 08:44:31;;;;;;;;;;;17.50;99.90;;;;;;5004086;28;19928;-84
2021/07/01 08:47:10;;;;;;;;;;;17.60;99.90;;;;;;4996484;28;19977;-84
2021/07/01 08:49:46;;;;;;;;;;;18.00;99.90;;;;;;5002007;28;19914;-83
2021/07/01 08:52:13;;;;;;;;;;;18.70;99.90;;;;;;5001491;28;19920;-84
2021/07/01 08:54:42;;;;;;;;;;;19.20;99.90;;;;;;5004461;28;19914;-84
2021/07/01 08:57:12;;;;;;;;;;;19.10;99.90;;;;;;4993314;28;19937;-84
2021/07/01 08:59:41;;;;;;;;;;;18.90;99.90;;;;;;5009949;28;20004;-84
2021/07/01 09:02:08;;;;;;;;;;;18.70;99.90;;;;;;5000263;28;19918;-84
2021/07/01 09:04:40;;;;;;;;;;;18.50;99.90;;;;;;5005205;28;19964;-84
2021/07/01 09:07:05;;;;;;;;;;;18.30;99.90;;;;;;5019905;28;19913;-84
2021/07/01 09:09:34;;;;;;;;;;;18.30;99.90;;;;;;4999769;28;20262;-83
2021/07/01 09:12:01;;;;;;;;;;;18.50;99.90;;;;;;5001129;28;19918;-83
2021/07/01 09:14:29;;;;;;;;;;;18.80;99.90;;;;;;4983064;28;19910;-84
2021/07/01 09:16:54;;;;;;;;;;;19.00;99.90;;;;;;5003167;28;19938;-84
2021/07/01 09:19:21;;;;;;;;;;;19.20;99.90;;;;;;4990789;28;19917;-84
2021/07/01 09:21:46;;;;;;;;;;;19.20;99.90;;;;;;5004387;28;19924;-84
2021/07/01 09:24:12;;;;;;;;;;;19.00;99.90;;;;;;5018488;28;19913;-83
2021/07/01 09:26:38;;;;;;;;;;;18.90;99.90;;;;;;5019999;28;19913;-84
2021/07/01 09:29:04;;;;;;;;;;;18.80;99.90;;;;;;5016984;28;19956;-83
2021/07/01 09:31:29;;;;;;;;;;;18.70;99.90;;;;;;5011632;28;19921;-84
2021/07/01 09:33:57;;;;;;;;;;;18.50;99.90;;;;;;5008271;28;19914;-84
2021/07/01 09:36:24;;;;;;;;;;;18.30;99.90;;;;;;5004517;28;19909;-85
2021/07/01 09:38:50;;;;;;;;;;;18.20;99.90;;;;;;5009226;28;19922;-84
2021/07/01 09:41:17;;;;;;;;;;;18.10;99.90;;;;;;4991870;28;20411;-84
2021/07/01 09:43:45;;;;;;;;;;;18.10;99.90;;;;;;5002074;28;19916;-84
2021/07/01 09:46:15;;;;;;;;;;;18.00;99.90;;;;;;5008388;28;20000;-84
2021/07/01 09:48:44;;;;;;;;;;;17.90;99.90;;;;;;5005699;28;19949;-84
2021/07/01 09:51:10;;;;;;;;;;;18.10;99.90;;;;;;5004447;28;19939;-83
2021/07/01 09:53:37;;;;;;;;;;;18.40;99.90;;;;;;5012861;28;19999;-84
2021/07/01 09:56:03;;;;;;;;;;;18.60;99.90;;;;;;5023239;28;19977;-84
2021/07/01 09:58:30;;;;;;;;;;;18.80;99.90;;;;;;5020552;28;19920;-84
2021/07/01 10:00:55;;;;;;;;;;;19.00;99.90;;;;;;5023148;28;19914;-84
2021/07/01 10:03:21;;;;;;;;;;;19.20;99.90;;;;;;5012759;28;19953;-84
2021/07/01 10:05:47;;;;;;;;;;;19.50;99.90;;;;;;5004558;28;19910;-85
2021/07/01 10:08:12;;;;;;;;;;;19.70;99.90;;;;;;5006070;28;19918;-85
2021/07/01 10:10:51;;;;;;;;;;;19.90;99.90;;;;;;5004921;28;19937;-84
2021/07/01 10:13:20;;;;;;;;;;;19.90;99.90;;;;;;5009945;28;20297;-84
2021/07/01 10:15:49;;;;;;;;;;;19.80;99.90;;;;;;5004974;28;19913;-84
2021/07/01 10:18:18;;;;;;;;;;;19.60;99.90;;;;;;5004001;28;19993;-84
2021/07/01 10:20:45;;;;;;;;;;;19.40;99.90;;;;;;5002472;28;20356;-84
2021/07/01 10:23:19;;;;;;;;;;;19.20;99.90;;;;;;5014854;28;19968;-84
2021/07/01 10:25:45;;;;;;;;;;;19.10;99.90;;;;;;4993583;28;19921;-84
2021/07/01 10:28:12;;;;;;;;;;;19.00;99.90;;;;;;5017428;28;19997;-83
2021/07/01 10:30:38;;;;;;;;;;;18.80;99.90;;;;;;5015056;28;19914;-85
2021/07/01 10:33:04;;;;;;;;;;;18.60;99.90;;;;;;5003640;28;19925;-84
2021/07/01 10:35:30;;;;;;;;;;;18.40;99.90;;;;;;5019299;28;19917;-84
2021/07/01 10:38:06;;;;;;;;;;;18.30;99.90;;;;;;5020498;28;19920;-84
2021/07/01 10:40:33;;;;;;;;;;;18.20;99.90;;;;;;5012672;28;20333;-84
2021/07/01 10:42:59;;;;;;;;;;;18.20;99.90;;;;;;5000933;28;19910;-84
2021/07/01 10:45:24;;;;;;;;;;;18.20;99.90;;;;;;5015452;28;19921;-85
2021/07/01 10:47:50;;;;;;;;;;;18.10;99.90;;;;;;5022216;28;19914;-84
2021/07/01 10:50:19;;;;;;;;;;;18.00;99.90;;;;;;5009295;28;20016;-84
2021/07/01 10:52:45;;;;;;;;;;;17.80;99.90;;;;;;5004352;28;19914;-84
2021/07/01 10:55:12;;;;;;;;;;;17.70;99.90;;;;;;5019518;28;19913;-84
2021/07/01 10:57:45;;;;;;;;;;;17.60;99.90;;;;;;5021290;28;19913;-84
2021/07/01 11:00:11;;;;;;;;;;;17.60;99.90;;;;;;5005226;28;19922;-82
2021/07/01 11:02:41;;;;;;;;;;;17.50;99.90;;;;;;5020574;28;19918;-85
2021/07/01 11:05:07;;;;;;;;;;;17.50;99.90;;;;;;5012102;28;19913;-84
2021/07/01 11:07:40;;;;;;;;;;;17.60;99.90;;;;;;5008096;28;19957;-84
2021/07/01 11:10:06;;;;;;;;;;;17.60;99.90;;;;;;5007365;28;19914;-85
2021/07/01 11:12:40;;;;;;;;;;;17.60;99.90;;;;;;5015801;28;19913;-84
2021/07/01 11:15:05;;;;;;;;;;;17.50;99.90;;;;;;4997604;28;19928;-84
2021/07/01 11:17:31;;;;;;;;;;;17.40;99.90;;;;;;5008123;28;19914;-85
2021/07/01 11:19:56;;;;;;;;;;;17.30;99.90;;;;;;5008513;28;20289;-84
2021/07/01 11:22:42;;;;;;;;;;;17.20;99.90;;;;;;5009695;28;19921;-84
2021/07/01 11:25:19;;;;;;;;;;;17.20;99.90;;;;;;5020705;28;19993;-85
2021/07/01 11:27:44;;;;;;;;;;;17.10;99.90;;;;;;5018955;28;19922;-85
2021/07/01 11:30:20;;;;;;;;;;;17.10;99.90;;;;;;5013404;28;19913;-84
2021/07/01 11:32:45;;;;;;;;;;;17.20;99.90;;;;;;5006280;28;19981;-84
2021/07/01 11:35:21;;;;;;;;;;;17.40;99.90;;;;;;5011976;28;19941;-85
2021/07/01 11:37:47;;;;;;;;;;;17.70;99.90;;;;;;5003664;28;20509;-85
2021/07/01 11:40:13;;;;;;;;;;;17.90;99.90;;;;;;5009051;28;19925;-85
2021/07/01 11:42:39;;;;;;;;;;;18.00;99.90;;;;;;4999715;28;19961;-85
2021/07/01 11:45:06;;;;;;;;;;;18.10;99.90;;;;;;5000462;28;19983;-85
2021/07/01 11:47:32;;;;;;;;;;;18.10;99.90;;;;;;4997696;28;19913;-85
2021/07/01 11:49:59;;;;;;;;;;;18.00;99.90;;;;;;5003267;28;19914;-84
2021/07/01 11:52:25;;;;;;;;;;;18.00;99.90;;;;;;5004174;28;19928;-84
2021/07/01 11:54:50;;;;;;;;;;;17.90;99.90;;;;;;5030015;28;20004;-84
2021/07/01 11:57:16;;;;;;;;;;;17.80;99.90;;;;;;5006948;28;19917;-84
2021/07/01 11:59:41;;;;;;;;;;;17.80;99.90;;;;;;5018752;28;19941;-84
2021/07/01 12:02:07;;;;;;;;;;;17.90;99.90;;;;;;5006395;28;20357;-84
2021/07/01 12:04:35;;;;;;;;;;;18.00;99.90;;;;;;5020173;28;19964;-84
2021/07/01 12:07:03;;;;;;;;;;;18.10;99.90;;;;;;5006488;28;20256;-84
2021/07/01 12:09:29;;;;;;;;;;;18.10;99.90;;;;;;5007930;28;20273;-84
2021/07/01 12:12:01;;;;;;;;;;;18.10;99.90;;;;;;4996053;28;19954;-83
2021/07/01 12:14:31;;;;;;;;;;;18.00;99.90;;;;;;5026028;28;19960;-84
2021/07/01 12:16:57;;;;;;;;;;;18.10;99.90;;;;;;5022288;28;19975;-84
2021/07/01 12:19:42;;;;;;;;;;;18.20;99.90;;;;;;5008343;28;19973;-84
2021/07/01 12:22:08;;;;;;;;;;;18.30;99.90;;;;;;5004684;28;20020;-84
2021/07/01 12:24:33;;;;;;;;;;;18.40;99.90;;;;;;5003083;28;19933;-84
2021/07/01 12:26:59;;;;;;;;;;;18.20;99.90;;;;;;5002833;28;19918;-84
2021/07/01 12:29:43;;;;;;;;;;;18.00;99.90;;;;;;5002528;28;19976;-84
2021/07/01 12:32:24;;;;;;;;;;;17.80;99.90;;;;;;5010244;28;20001;-83
2021/07/01 12:34:49;;;;;;;;;;;17.70;99.90;;;;;;4998177;28;19925;-83
2021/07/01 12:37:15;;;;;;;;;;;17.60;99.90;;;;;;5004083;28;19914;-84
2021/07/01 12:39:41;;;;;;;;;;;17.50;99.90;;;;;;5000621;28;19918;-84
2021/07/01 12:42:07;;;;;;;;;;;17.40;99.90;;;;;;4998360;28;19918;-83
2021/07/01 12:44:36;;;;;;;;;;;17.40;99.90;;;;;;4993081;28;19921;-83
2021/07/01 12:47:01;;;;;;;;;;;17.40;99.90;;;;;;4998021;28;19921;-83
2021/07/01 12:49:34;;;;;;;;;;;17.40;99.90;;;;;;4992428;28;19913;-83
2021/07/01 12:52:04;;;;;;;;;;;17.30;99.90;;;;;;4994798;28;19918;-84
2021/07/01 12:54:29;;;;;;;;;;;17.30;99.90;;;;;;5007120;28;19976;-83
2021/07/01 12:56:55;;;;;;;;;;;17.30;99.90;;;;;;5008616;28;20008;-83
2021/07/01 12:59:21;;;;;;;;;;;17.30;99.90;;;;;;5017677;28;19910;-83
2021/07/01 13:01:47;;;;;;;;;;;17.30;99.90;;;;;;5010158;28;19918;-84
2021/07/01 13:04:13;;;;;;;;;;;17.20;99.90;;;;;;4987916;28;19921;-84
2021/07/01 13:06:41;;;;;;;;;;;17.20;99.90;;;;;;4992951;28;20029;-84
2021/07/01 13:09:07;;;;;;;;;;;17.10;99.90;;;;;;5000276;28;19969;-83
2021/07/01 13:11:53;;;;;;;;;;;17.10;99.90;;;;;;5017910;28;19949;-84
2021/07/01 13:14:21;;;;;;;;;;;17.00;99.90;;;;;;5007858;28;19948;-84
2021/07/01 13:17:06;;;;;;;;;;;17.00;99.90;;;;;;5023543;28;19953;-84
2021/07/01 13:19:33;;;;;;;;;;;17.00;99.90;;;;;;5000524;28;19914;-83
2021/07/01 13:22:00;;;;;;;;;;;16.90;99.90;;;;;;4999761;28;19942;-84
2021/07/01 13:24:26;;;;;;;;;;;16.80;99.90;;;;;;4991183;28;19918;-83
2021/07/01 13:26:53;;;;;;;;;;;16.80;99.90;;;;;;5002438;28;19963;-84
2021/07/01 13:29:38;;;;;;;;;;;16.80;99.90;;;;;;5005326;28;19921;-84
2021/07/01 13:32:04;;;;;;;;;;;16.80;99.90;;;;;;5001729;28;19967;-84
2021/07/01 13:34:30;;;;;;;;;;;16.90;99.90;;;;;;5012154;28;19913;-82
2021/07/01 13:36:55;;;;;;;;;;;17.00;99.90;;;;;;5017897;28;20301;-84
2021/07/01 13:39:27;;;;;;;;;;;17.10;99.90;;;;;;5002479;28;19914;-84
2021/07/01 13:41:53;;;;;;;;;;;17.20;99.90;;;;;;4992731;28;19918;-83
2021/07/01 13:44:18;;;;;;;;;;;17.40;99.90;;;;;;5011530;28;19968;-84
2021/07/01 13:46:44;;;;;;;;;;;17.50;99.90;;;;;;5013030;28;20008;-84
2021/07/01 13:49:10;;;;;;;;;;;17.70;99.90;;;;;;4998567;28;19917;-84
2021/07/01 13:51:35;;;;;;;;;;;17.80;99.90;;;;;;5017727;28;20021;-83
2021/07/01 13:54:11;;;;;;;;;;;17.90;99.90;;;;;;5016746;28;19941;-83
2021/07/01 13:56:40;;;;;;;;;;;17.80;99.90;;;;;;5002532;28;19925;-84
2021/07/01 13:59:07;;;;;;;;;;;17.80;99.90;;;;;;4995025;28;20294;-83
2021/07/01 14:01:32;;;;;;;;;;;17.80;99.90;;;;;;5003121;28;19926;-84
2021/07/01 14:03:57;;;;;;;;;;;17.90;99.90;;;;;;5010583;28;19910;-85
2021/07/01 14:06:23;;;;;;;;;;;18.00;99.90;;;;;;5003991;28;19914;-84
2021/07/01 14:08:49;;;;;;;;;;;18.10;99.90;;;;;;5007968;28;20262;-82
2021/07/01 14:11:15;;;;;;;;;;;18.10;99.90;;;;;;4994381;28;19921;-85
2021/07/01 14:13:48;;;;;;;;;;;18.00;99.90;;;;;;4997852;28;19910;-84